createdAt,value
2019-05-18T00:00:14.160Z,10.80
2019-05-18T00:02:43.487Z,10.70
2019-05-18T00:05:13.358Z,10.70
2019-05-18T00:07:42.695Z,10.60
2019-05-18T00:10:11.984Z,10.60
2019-05-18T00:12:41.290Z,10.60
2019-05-18T00:15:10.758Z,10.60
2019-05-18T00:17:40.111Z,10.50
2019-05-18T00:20:09.799Z,10.50
2019-05-18T00:22:39.262Z,10.50
2019-05-18T00:25:08.690Z,10.50
2019-05-18T00:27:38.000Z,10.40
2019-05-18T00:30:07.652Z,10.40
2019-05-18T00:32:36.985Z,10.40
2019-05-18T00:35:06.796Z,10.40
2019-05-18T00:37:36.181Z,10.30
2019-05-18T00:40:06.312Z,10.30
2019-05-18T00:42:35.627Z,10.20
2019-05-18T00:45:05.643Z,10.20
2019-05-18T00:47:41.355Z,10.20
2019-05-18T00:50:07.201Z,10.20
2019-05-18T00:52:36.557Z,10.20
2019-05-18T00:55:06.614Z,10.10
2019-05-18T00:57:35.885Z,10.10
2019-05-18T01:00:06.494Z,10.00
2019-05-18T01:02:35.954Z,10.00
2019-05-18T01:05:05.588Z,10.00
2019-05-18T01:07:34.899Z,9.90
2019-05-18T01:10:04.297Z,10.00
2019-05-18T01:12:33.634Z,9.90
2019-05-18T01:15:02.918Z,9.90
2019-05-18T01:17:32.277Z,9.80
2019-05-18T01:20:01.648Z,9.80
2019-05-18T01:22:30.923Z,9.80
2019-05-18T01:25:00.272Z,9.80
2019-05-18T01:27:29.567Z,9.80
2019-05-18T01:29:58.830Z,9.70
2019-05-18T01:32:28.895Z,9.70
2019-05-18T01:34:58.166Z,9.60
2019-05-18T01:37:27.463Z,9.60
2019-05-18T01:39:56.769Z,9.50
2019-05-18T01:42:27.299Z,9.50
2019-05-18T01:44:56.679Z,9.50
2019-05-18T01:47:26.028Z,9.50
2019-05-18T01:49:55.285Z,9.60
2019-05-18T01:52:24.571Z,9.60
2019-05-18T01:54:53.925Z,9.50
2019-05-18T01:57:23.167Z,9.40
2019-05-18T01:59:52.458Z,9.40
2019-05-18T02:02:21.829Z,9.40
2019-05-18T02:04:51.211Z,9.40
2019-05-18T02:07:20.479Z,9.40
2019-05-18T02:09:49.839Z,9.30
2019-05-18T02:12:19.145Z,9.30
2019-05-18T02:14:48.512Z,9.30
2019-05-18T02:17:17.860Z,9.10
2019-05-18T02:19:47.228Z,9.10
2019-05-18T02:22:16.549Z,9.10
2019-05-18T02:24:45.928Z,9.10
2019-05-18T02:27:15.206Z,9.10
2019-05-18T02:29:44.558Z,9.10
2019-05-18T02:32:13.918Z,9.10
2019-05-18T02:34:43.359Z,9.00
2019-05-18T02:37:12.693Z,8.90
2019-05-18T02:39:42.036Z,8.90
2019-05-18T02:42:11.327Z,8.90
2019-05-18T02:44:40.665Z,8.90
2019-05-18T02:47:10.019Z,8.80
2019-05-18T02:49:39.409Z,8.80
2019-05-18T02:52:08.642Z,8.90
2019-05-18T02:54:38.028Z,8.70
2019-05-18T02:57:07.415Z,8.70
2019-05-18T02:59:36.790Z,8.70
2019-05-18T03:02:06.164Z,8.70
2019-05-18T03:04:35.536Z,8.70
2019-05-18T03:07:04.905Z,8.70
2019-05-18T03:09:34.296Z,8.60
2019-05-18T03:12:03.880Z,8.60
2019-05-18T03:14:33.149Z,8.60
2019-05-18T03:17:02.418Z,8.60
2019-05-18T03:19:31.754Z,8.60
2019-05-18T03:22:01.284Z,8.70
2019-05-18T03:24:30.619Z,8.70
2019-05-18T03:26:59.880Z,8.70
2019-05-18T03:29:29.044Z,8.70
2019-05-18T03:31:58.400Z,8.70
2019-05-18T03:34:27.728Z,8.70
2019-05-18T03:36:57.163Z,8.70
2019-05-18T03:39:26.554Z,8.70
2019-05-18T03:41:55.920Z,8.70
2019-05-18T03:44:28.079Z,8.70
2019-05-18T03:46:57.423Z,8.70
2019-05-18T03:49:27.837Z,8.70
2019-05-18T03:51:57.335Z,8.60
2019-05-18T03:54:26.612Z,8.50
2019-05-18T03:56:57.110Z,8.70
2019-05-18T03:59:26.485Z,8.80
2019-05-18T04:01:55.846Z,8.90
2019-05-18T04:04:25.216Z,8.90
2019-05-18T04:06:54.549Z,9.00
2019-05-18T04:09:23.955Z,9.00
2019-05-18T04:11:53.395Z,9.00
2019-05-18T04:14:22.746Z,9.00
2019-05-18T04:16:52.124Z,9.10
2019-05-18T04:19:21.450Z,9.10
2019-05-18T04:21:50.814Z,9.10
2019-05-18T04:24:20.150Z,9.00
2019-05-18T04:26:49.476Z,9.10
2019-05-18T04:29:18.856Z,9.20
2019-05-18T04:31:48.200Z,9.30
2019-05-18T04:34:17.460Z,9.40
2019-05-18T04:36:46.750Z,9.40
2019-05-18T04:39:16.053Z,9.30
2019-05-18T04:41:45.377Z,9.30
2019-05-18T04:44:14.660Z,9.20
2019-05-18T04:46:44.019Z,9.40
2019-05-18T04:49:13.367Z,9.70
2019-05-18T04:51:42.670Z,9.80
2019-05-18T04:54:13.027Z,9.90
2019-05-18T04:56:43.190Z,10.00
2019-05-18T04:59:12.838Z,10.10
2019-05-18T05:01:42.157Z,10.20
2019-05-18T05:04:11.479Z,10.30
2019-05-18T05:06:40.847Z,10.30
2019-05-18T05:09:10.194Z,10.20
2019-05-18T05:11:39.492Z,10.40
2019-05-18T05:14:08.864Z,10.50
2019-05-18T05:16:38.236Z,10.60
2019-05-18T05:19:08.779Z,10.40
2019-05-18T05:21:38.303Z,10.80
2019-05-18T05:24:07.639Z,11.00
2019-05-18T05:26:39.497Z,10.90
2019-05-18T05:29:07.900Z,10.90
2019-05-18T05:31:37.271Z,11.30
2019-05-18T05:34:06.595Z,11.10
2019-05-18T05:36:35.905Z,10.90
2019-05-18T05:39:07.084Z,10.70
2019-05-18T05:41:36.459Z,11.30
2019-05-18T05:44:05.852Z,11.60
2019-05-18T05:46:37.328Z,11.70
2019-05-18T05:49:06.216Z,11.70
2019-05-18T05:51:35.553Z,12.10
2019-05-18T05:54:04.887Z,12.40
2019-05-18T05:56:34.219Z,12.90
2019-05-18T05:59:03.519Z,13.00
2019-05-18T06:01:32.796Z,14.50
2019-05-18T06:04:02.201Z,13.60
2019-05-18T06:06:32.070Z,12.90
2019-05-18T06:09:01.406Z,13.00
2019-05-18T06:11:30.789Z,14.20
2019-05-18T06:14:00.090Z,14.90
2019-05-18T06:16:29.461Z,13.90
2019-05-18T06:18:58.858Z,14.10
2019-05-18T06:21:28.184Z,15.70
2019-05-18T06:23:57.539Z,15.20
2019-05-18T06:26:26.916Z,14.40
2019-05-18T06:28:56.277Z,15.00
2019-05-18T06:31:25.545Z,14.70
2019-05-18T06:33:54.926Z,15.00
2019-05-18T06:36:24.276Z,14.30
2019-05-18T06:38:53.566Z,14.70
2019-05-18T06:41:22.923Z,14.70
2019-05-18T06:43:52.221Z,14.80
2019-05-18T06:46:21.611Z,15.40
2019-05-18T06:48:50.857Z,15.20
2019-05-18T06:51:20.184Z,16.20
2019-05-18T06:53:50.343Z,15.60
2019-05-18T06:56:19.614Z,15.80
2019-05-18T06:58:49.809Z,15.80
2019-05-18T07:01:19.164Z,16.10
2019-05-18T07:03:48.502Z,16.10
2019-05-18T07:06:18.138Z,15.90
2019-05-18T07:08:47.507Z,16.50
2019-05-18T07:11:18.420Z,16.40
2019-05-18T07:13:47.801Z,16.50
2019-05-18T07:16:17.193Z,16.80
2019-05-18T07:18:46.524Z,16.70
2019-05-18T07:21:22.302Z,16.60
2019-05-18T07:23:46.835Z,17.00
2019-05-18T07:26:16.209Z,17.20
2019-05-18T07:28:45.584Z,17.00
2019-05-18T07:31:14.976Z,17.30
2019-05-18T07:33:44.320Z,17.30
2019-05-18T07:36:13.714Z,17.30
2019-05-18T07:38:43.070Z,17.40
2019-05-18T07:41:12.439Z,17.50
2019-05-18T07:43:41.818Z,19.00
2019-05-18T07:46:11.186Z,18.90
2019-05-18T07:48:40.572Z,17.90
2019-05-18T07:51:09.997Z,18.20
2019-05-18T07:53:39.376Z,19.10
2019-05-18T07:56:08.796Z,19.00
2019-05-18T07:58:38.091Z,17.70
2019-05-18T08:01:07.392Z,18.00
2019-05-18T08:03:36.699Z,18.40
2019-05-18T08:06:06.041Z,18.50
2019-05-18T08:08:35.405Z,18.50
2019-05-18T08:11:04.774Z,20.00
2019-05-18T08:13:34.175Z,19.60
2019-05-18T08:16:03.528Z,19.10
2019-05-18T08:18:32.876Z,19.00
2019-05-18T08:21:02.257Z,18.70
2019-05-18T08:23:31.574Z,18.40
2019-05-18T08:26:00.940Z,18.40
2019-05-18T08:28:30.331Z,18.30
2019-05-18T08:30:59.660Z,18.50
2019-05-18T08:33:28.982Z,18.50
2019-05-18T08:35:58.311Z,18.80
2019-05-18T08:38:27.606Z,19.10
2019-05-18T08:40:57.052Z,18.80
2019-05-18T08:43:26.658Z,19.40
2019-05-18T08:45:55.933Z,18.50
2019-05-18T08:48:25.259Z,18.90
2019-05-18T08:50:54.563Z,19.40
2019-05-18T08:53:23.929Z,18.80
2019-05-18T08:55:53.256Z,20.10
2019-05-18T08:58:22.546Z,19.50
2019-05-18T09:00:51.934Z,19.70
2019-05-18T09:03:21.300Z,19.30
2019-05-18T09:05:50.671Z,19.20
2019-05-18T09:08:20.016Z,19.80
2019-05-18T09:10:49.291Z,19.90
2019-05-18T09:13:18.778Z,19.10
2019-05-18T09:15:48.138Z,20.00
2019-05-18T09:18:17.488Z,19.60
2019-05-18T09:20:47.185Z,19.30
2019-05-18T09:23:16.559Z,19.10
2019-05-18T09:25:45.936Z,19.00
2019-05-18T09:28:15.385Z,19.20
2019-05-18T09:30:44.671Z,20.00
2019-05-18T09:33:14.041Z,19.90
2019-05-18T09:35:43.374Z,20.00
2019-05-18T09:38:12.868Z,20.20
2019-05-18T09:40:42.212Z,20.30
2019-05-18T09:43:11.624Z,19.40
2019-05-18T09:45:40.984Z,19.30
2019-05-18T09:48:10.452Z,19.10
2019-05-18T09:50:39.874Z,19.30
2019-05-18T09:53:09.225Z,20.30
2019-05-18T09:55:38.638Z,20.70
2019-05-18T09:58:10.003Z,20.00
2019-05-18T10:00:39.350Z,19.90
2019-05-18T10:03:08.723Z,20.70
2019-05-18T10:05:37.995Z,20.20
2019-05-18T10:08:07.376Z,20.00
2019-05-18T10:10:36.750Z,22.10
2019-05-18T10:13:06.130Z,22.00
2019-05-18T10:15:38.468Z,21.20
2019-05-18T10:18:07.822Z,22.20
2019-05-18T10:20:37.145Z,23.40
2019-05-18T10:23:12.742Z,21.20
2019-05-18T10:25:37.429Z,20.30
2019-05-18T10:28:06.710Z,21.00
2019-05-18T10:30:35.991Z,21.70
2019-05-18T10:33:05.490Z,21.20
2019-05-18T10:35:34.829Z,20.80
2019-05-18T10:38:04.184Z,22.10
2019-05-18T10:40:33.527Z,23.60
2019-05-18T10:43:02.850Z,21.80
2019-05-18T10:45:32.217Z,21.40
2019-05-18T10:48:01.631Z,21.50
2019-05-18T10:50:31.129Z,22.50
2019-05-18T10:53:00.511Z,23.90
2019-05-18T10:55:29.873Z,21.00
2019-05-18T10:57:59.256Z,20.30
2019-05-18T11:00:28.784Z,22.40
2019-05-18T11:02:58.159Z,21.30
2019-05-18T11:05:27.535Z,21.40
2019-05-18T11:07:56.824Z,21.20
2019-05-18T11:10:27.647Z,20.90
2019-05-18T11:12:56.998Z,21.10
2019-05-18T11:15:26.360Z,22.80
2019-05-18T11:17:55.734Z,22.10
2019-05-18T11:20:25.160Z,23.50
2019-05-18T11:22:54.415Z,23.20
2019-05-18T11:25:23.727Z,23.00
2019-05-18T11:27:53.045Z,21.80
2019-05-18T11:30:23.742Z,21.90
2019-05-18T11:32:53.079Z,22.20
2019-05-18T11:35:22.842Z,23.10
2019-05-18T11:37:52.111Z,22.00
2019-05-18T11:40:21.493Z,21.20
2019-05-18T11:42:50.889Z,21.90
2019-05-18T11:45:20.805Z,22.90
2019-05-18T11:47:50.145Z,22.00
2019-05-18T11:50:19.931Z,21.40
2019-05-18T11:52:49.324Z,21.30
2019-05-18T11:55:18.704Z,21.00
2019-05-18T11:57:48.017Z,21.20
2019-05-18T12:00:17.875Z,21.00
2019-05-18T12:02:47.315Z,22.50
2019-05-18T12:05:16.924Z,21.70
2019-05-18T12:07:46.294Z,22.80
2019-05-18T12:10:18.387Z,22.60
2019-05-18T12:12:47.187Z,21.40
2019-05-18T12:15:17.303Z,21.50
2019-05-18T12:17:46.616Z,21.00
2019-05-18T12:20:16.189Z,21.60
2019-05-18T12:22:45.476Z,22.20
2019-05-18T12:25:15.291Z,22.30
2019-05-18T12:27:44.668Z,21.90
2019-05-18T12:30:14.342Z,23.40
2019-05-18T12:32:45.643Z,21.90
2019-05-18T12:35:15.023Z,21.40
2019-05-18T12:37:44.384Z,21.70
2019-05-18T12:40:17.872Z,21.30
2019-05-18T12:42:47.146Z,21.70
2019-05-18T12:45:16.848Z,21.50
2019-05-18T12:47:46.217Z,22.40
2019-05-18T12:50:16.598Z,22.00
2019-05-18T12:52:45.988Z,22.10
2019-05-18T12:55:15.643Z,22.40
2019-05-18T12:57:45.014Z,21.70
2019-05-18T13:00:15.163Z,21.70
2019-05-18T13:02:44.482Z,21.50
2019-05-18T13:05:14.113Z,21.60
2019-05-18T13:07:43.444Z,22.20
2019-05-18T13:10:13.522Z,22.40
2019-05-18T13:12:42.880Z,22.40
2019-05-18T13:15:12.502Z,23.80
2019-05-18T13:17:41.852Z,25.00
2019-05-18T13:20:15.765Z,22.50
2019-05-18T13:22:45.040Z,21.70
2019-05-18T13:25:14.758Z,21.40
2019-05-18T13:27:44.102Z,21.00
2019-05-18T13:30:14.191Z,22.60
2019-05-18T13:32:43.536Z,24.50
2019-05-18T13:35:14.681Z,23.40
2019-05-18T13:37:44.055Z,24.90
2019-05-18T13:40:14.148Z,24.70
2019-05-18T13:42:43.462Z,22.80
2019-05-18T13:45:13.870Z,22.90
2019-05-18T13:47:43.207Z,22.40
2019-05-18T13:50:13.491Z,21.50
2019-05-18T13:52:42.853Z,21.10
2019-05-18T13:55:12.712Z,21.40
2019-05-18T13:57:42.038Z,21.30
2019-05-18T14:00:11.573Z,21.90
2019-05-18T14:02:40.840Z,23.00
2019-05-18T14:05:10.810Z,23.10
2019-05-18T14:07:40.067Z,22.10
2019-05-18T14:10:12.436Z,21.70
2019-05-18T14:12:41.476Z,22.10
2019-05-18T14:15:11.996Z,21.60
2019-05-18T14:17:42.560Z,21.10
2019-05-18T14:20:12.076Z,21.30
2019-05-18T14:22:41.378Z,22.40
2019-05-18T14:25:19.487Z,22.70
2019-05-18T14:27:42.452Z,21.50
2019-05-18T14:30:12.625Z,21.90
2019-05-18T14:32:41.985Z,21.40
2019-05-18T14:35:11.465Z,21.70
2019-05-18T14:37:40.793Z,22.10
2019-05-18T14:40:10.322Z,21.40
2019-05-18T14:42:39.707Z,21.30
2019-05-18T14:45:09.688Z,21.40
2019-05-18T14:47:39.030Z,21.30
2019-05-18T14:50:08.756Z,22.10
2019-05-18T14:52:38.096Z,21.40
2019-05-18T14:55:07.599Z,21.30
2019-05-18T14:57:36.929Z,23.30
2019-05-18T15:00:07.975Z,23.70
2019-05-18T15:02:37.378Z,24.00
2019-05-18T15:05:06.962Z,23.20
2019-05-18T15:07:36.282Z,23.10
2019-05-18T15:10:05.933Z,22.90
2019-05-18T15:12:35.300Z,23.50
2019-05-18T15:15:04.699Z,22.30
2019-05-18T15:17:34.132Z,22.30
2019-05-18T15:20:03.431Z,21.80
2019-05-18T15:22:32.713Z,22.10
2019-05-18T15:25:02.071Z,22.00
2019-05-18T15:27:31.288Z,22.30
2019-05-18T15:30:00.701Z,22.90
2019-05-18T15:32:30.051Z,23.20
2019-05-18T15:34:59.330Z,22.30
2019-05-18T15:37:28.669Z,21.60
2019-05-18T15:39:57.954Z,21.90
2019-05-18T15:42:27.295Z,21.40
2019-05-18T15:44:56.574Z,21.30
2019-05-18T15:47:25.844Z,21.40
2019-05-18T15:49:55.247Z,22.00
2019-05-18T15:52:24.550Z,21.30
2019-05-18T15:54:53.932Z,21.40
2019-05-18T15:57:23.264Z,21.70
2019-05-18T15:59:54.940Z,23.20
2019-05-18T16:02:24.240Z,22.50
2019-05-18T16:04:53.550Z,21.50
2019-05-18T16:07:22.805Z,21.20
2019-05-18T16:09:52.217Z,21.70
2019-05-18T16:12:21.592Z,22.60
2019-05-18T16:14:50.942Z,22.50
2019-05-18T16:17:20.225Z,22.20
2019-05-18T16:19:49.519Z,23.10
2019-05-18T16:22:18.909Z,22.50
2019-05-18T16:24:48.308Z,21.90
2019-05-18T16:27:17.765Z,22.10
2019-05-18T16:29:47.063Z,22.10
2019-05-18T16:32:16.473Z,21.60
2019-05-18T16:34:45.810Z,21.80
2019-05-18T16:37:15.208Z,21.40
2019-05-18T16:39:44.527Z,21.40
2019-05-18T16:42:13.864Z,21.50
2019-05-18T16:44:43.198Z,21.60
2019-05-18T16:47:12.573Z,21.60
2019-05-18T16:49:41.916Z,21.60
2019-05-18T16:52:11.247Z,21.70
2019-05-18T16:54:40.535Z,21.50
2019-05-18T16:57:09.851Z,21.60
2019-05-18T16:59:39.187Z,21.50
2019-05-18T17:02:08.813Z,21.50
2019-05-18T17:04:38.139Z,21.50
2019-05-18T17:07:07.527Z,21.50
2019-05-18T17:09:36.932Z,21.50
2019-05-18T17:12:06.235Z,21.60
2019-05-18T17:14:35.602Z,21.50
2019-05-18T17:17:06.888Z,21.90
2019-05-18T17:19:36.183Z,22.10
2019-05-18T17:22:05.500Z,21.40
2019-05-18T17:24:34.817Z,21.30
2019-05-18T17:27:04.116Z,21.10
2019-05-18T17:29:33.455Z,21.00
2019-05-18T17:32:02.749Z,21.10
2019-05-18T17:34:31.996Z,21.10
2019-05-18T17:37:03.468Z,21.30
2019-05-18T17:39:32.836Z,21.40
2019-05-18T17:42:04.977Z,21.10
2019-05-18T17:44:33.183Z,21.00
2019-05-18T17:47:02.529Z,20.90
2019-05-18T17:49:31.820Z,20.90
2019-05-18T17:52:01.164Z,21.10
2019-05-18T17:54:30.535Z,21.20
2019-05-18T17:57:08.042Z,21.00
2019-05-18T17:59:30.893Z,21.00
2019-05-18T18:02:00.271Z,20.80
2019-05-18T18:04:29.639Z,20.70
2019-05-18T18:06:59.002Z,20.80
2019-05-18T18:09:28.362Z,20.90
2019-05-18T18:11:57.772Z,20.80
2019-05-18T18:14:27.132Z,20.40
2019-05-18T18:16:56.456Z,20.50
2019-05-18T18:19:25.839Z,20.70
2019-05-18T18:21:55.428Z,20.70
2019-05-18T18:24:24.781Z,20.40
2019-05-18T18:26:54.154Z,20.40
2019-05-18T18:29:23.531Z,20.20
2019-05-18T18:31:52.915Z,20.20
2019-05-18T18:34:22.283Z,20.30
2019-05-18T18:36:51.620Z,20.30
2019-05-18T18:39:20.984Z,20.50
2019-05-18T18:41:50.300Z,20.70
2019-05-18T18:44:19.664Z,20.60
2019-05-18T18:46:49.030Z,20.80
2019-05-18T18:49:18.366Z,20.80
2019-05-18T18:51:47.756Z,20.90
2019-05-18T18:54:17.081Z,20.60
2019-05-18T18:56:46.363Z,20.50
2019-05-18T18:59:15.702Z,20.60
2019-05-18T19:01:45.106Z,20.60
2019-05-18T19:04:14.447Z,20.60
2019-05-18T19:06:43.903Z,20.50
2019-05-18T19:09:13.266Z,20.50
2019-05-18T19:11:42.642Z,20.40
2019-05-18T19:14:12.000Z,20.30
2019-05-18T19:16:41.268Z,20.30
2019-05-18T19:19:10.644Z,20.20
2019-05-18T19:21:40.008Z,20.00
2019-05-18T19:24:09.337Z,20.00
2019-05-18T19:26:38.699Z,19.90
2019-05-18T19:29:08.043Z,19.80
2019-05-18T19:31:37.406Z,19.70
2019-05-18T19:34:06.756Z,19.60
2019-05-18T19:36:36.108Z,19.50
2019-05-18T19:39:06.746Z,19.40
2019-05-18T19:41:36.102Z,19.30
2019-05-18T19:44:05.500Z,19.20
2019-05-18T19:46:34.850Z,19.20
2019-05-18T19:49:04.223Z,19.10
2019-05-18T19:51:33.587Z,18.90
2019-05-18T19:54:03.066Z,18.90
2019-05-18T19:56:39.688Z,18.80
2019-05-18T19:59:03.378Z,18.70
2019-05-18T20:01:32.720Z,18.60
2019-05-18T20:04:01.978Z,18.60
2019-05-18T20:06:31.321Z,18.50
2019-05-18T20:09:00.674Z,18.50
2019-05-18T20:11:31.125Z,18.40
2019-05-18T20:14:00.493Z,18.30
2019-05-18T20:16:30.757Z,18.20
2019-05-18T20:19:00.084Z,18.20
2019-05-18T20:21:30.598Z,18.10
2019-05-18T20:23:59.949Z,17.90
2019-05-18T20:26:29.298Z,17.80
2019-05-18T20:28:58.707Z,17.60
2019-05-18T20:31:28.065Z,17.50
2019-05-18T20:33:57.323Z,17.50
2019-05-18T20:36:26.628Z,17.50
2019-05-18T20:38:55.979Z,17.50
2019-05-18T20:41:25.344Z,17.40
2019-05-18T20:43:54.766Z,17.30
2019-05-18T20:46:24.096Z,17.20
2019-05-18T20:48:53.370Z,17.10
2019-05-18T20:51:22.734Z,16.70
2019-05-18T20:53:52.088Z,16.10
2019-05-18T20:56:21.375Z,15.90
2019-05-18T20:58:50.824Z,16.10
2019-05-18T21:01:20.179Z,16.40
2019-05-18T21:03:49.554Z,16.60
2019-05-18T21:06:18.917Z,16.60
2019-05-18T21:08:48.232Z,16.50
2019-05-18T21:11:17.627Z,16.20
2019-05-18T21:13:47.016Z,15.70
2019-05-18T21:16:16.352Z,15.70
2019-05-18T21:18:45.718Z,15.80
2019-05-18T21:21:15.070Z,15.90
2019-05-18T21:23:45.330Z,16.00
2019-05-18T21:26:15.647Z,16.10
2019-05-18T21:28:55.555Z,15.90
2019-05-18T21:31:16.047Z,15.50
2019-05-18T21:33:46.701Z,15.60
2019-05-18T21:36:16.046Z,15.70
2019-05-18T21:38:45.406Z,15.80
2019-05-18T21:41:14.762Z,15.80
2019-05-18T21:43:44.092Z,15.70
2019-05-18T21:46:13.304Z,15.60
2019-05-18T21:48:42.587Z,15.40
2019-05-18T21:51:11.923Z,15.10
2019-05-18T21:53:41.196Z,15.10
2019-05-18T21:56:10.579Z,15.00
2019-05-18T21:58:39.963Z,14.80
2019-05-18T22:01:09.346Z,14.70
2019-05-18T22:03:38.750Z,14.60
2019-05-18T22:06:08.133Z,14.80
2019-05-18T22:08:37.496Z,14.90
2019-05-18T22:11:06.932Z,14.80
2019-05-18T22:13:36.223Z,14.70
2019-05-18T22:16:05.630Z,14.60
2019-05-18T22:18:35.017Z,14.50
2019-05-18T22:21:04.853Z,14.60
2019-05-18T22:23:34.229Z,14.40
2019-05-18T22:26:03.627Z,14.40
2019-05-18T22:28:32.998Z,14.40
2019-05-18T22:31:02.362Z,14.50
2019-05-18T22:33:31.680Z,14.40
2019-05-18T22:36:01.063Z,14.00
2019-05-18T22:38:30.411Z,13.80
2019-05-18T22:40:59.715Z,13.90
2019-05-18T22:43:29.102Z,14.00
2019-05-18T22:45:58.456Z,14.10
2019-05-18T22:48:40.373Z,14.10
2019-05-18T22:50:58.771Z,13.90
2019-05-18T22:53:28.112Z,13.90
2019-05-18T22:55:57.407Z,13.90
2019-05-18T22:58:26.764Z,13.80
2019-05-18T23:00:56.082Z,13.70
2019-05-18T23:03:25.438Z,13.70
2019-05-18T23:05:54.798Z,13.60
2019-05-18T23:08:24.130Z,13.60
2019-05-18T23:10:53.515Z,13.60
2019-05-18T23:13:22.974Z,13.60
2019-05-18T23:15:52.341Z,13.40
2019-05-18T23:18:21.727Z,13.20
2019-05-18T23:21:10.186Z,12.90
2019-05-18T23:23:39.563Z,12.90
2019-05-18T23:26:11.500Z,13.20
2019-05-18T23:28:42.911Z,13.30
2019-05-18T23:31:12.164Z,13.30
2019-05-18T23:33:41.549Z,13.20
2019-05-18T23:36:12.796Z,13.10
2019-05-18T23:38:42.067Z,13.10
2019-05-18T23:41:11.333Z,13.10
2019-05-18T23:43:40.711Z,13.10
2019-05-18T23:46:10.064Z,12.90
2019-05-18T23:48:39.439Z,12.90
2019-05-18T23:51:08.774Z,13.00
2019-05-18T23:53:38.081Z,13.00
2019-05-18T23:56:07.435Z,13.00
2019-05-18T23:58:36.878Z,13.00
